createdAt,value
2018-12-11T00:01:12.011Z,35.35
2018-12-11T00:03:42.627Z,26.97
2018-12-11T00:06:11.394Z,29.00
2018-12-11T00:08:40.111Z,23.67
2018-12-11T00:11:08.931Z,34.80
2018-12-11T00:13:37.598Z,21.68
2018-12-11T00:16:06.327Z,30.62
2018-12-11T00:18:35.035Z,22.87
2018-12-11T00:21:03.758Z,22.73
2018-12-11T00:23:32.419Z,24.50
2018-12-11T00:26:01.086Z,29.07
2018-12-11T00:28:29.743Z,29.25
2018-12-11T00:30:58.450Z,26.90
2018-12-11T00:33:27.139Z,24.57
2018-12-11T00:35:55.846Z,25.73
2018-12-11T00:38:24.566Z,32.42
2018-12-11T00:40:53.230Z,25.97
2018-12-11T00:43:21.954Z,21.95
2018-12-11T00:45:50.679Z,33.08
2018-12-11T00:48:19.395Z,30.17
2018-12-11T00:50:48.158Z,28.10
2018-12-11T00:53:16.895Z,23.30
2018-12-11T00:55:45.599Z,25.10
2018-12-11T00:58:14.384Z,22.58
2018-12-11T01:00:43.147Z,28.02
2018-12-11T01:03:11.879Z,20.30
2018-12-11T01:05:40.596Z,31.27
2018-12-11T01:08:09.295Z,23.47
2018-12-11T01:10:38.016Z,29.75
2018-12-11T01:13:06.791Z,33.45
2018-12-11T01:15:35.506Z,28.40
2018-12-11T01:18:04.210Z,25.12
2018-12-11T01:20:32.930Z,18.55
2018-12-11T01:23:01.667Z,21.33
2018-12-11T01:25:30.362Z,26.35
2018-12-11T01:27:58.994Z,26.80
2018-12-11T01:30:27.736Z,25.72
2018-12-11T01:32:56.460Z,26.25
2018-12-11T01:35:25.186Z,29.00
2018-12-11T01:37:53.906Z,26.17
2018-12-11T01:40:22.672Z,24.40
2018-12-11T01:42:51.345Z,23.10
2018-12-11T01:45:20.055Z,27.17
2018-12-11T01:47:48.770Z,20.77
2018-12-11T01:50:17.463Z,28.92
2018-12-11T01:52:46.220Z,22.22
2018-12-11T01:55:15.006Z,20.30
2018-12-11T01:57:43.722Z,21.05
2018-12-11T02:00:12.454Z,27.80
2018-12-11T02:02:41.234Z,20.82
2018-12-11T02:05:09.618Z,30.70
2018-12-11T02:07:38.331Z,22.35
2018-12-11T02:10:07.171Z,28.70
2018-12-11T02:12:35.874Z,23.23
2018-12-11T02:15:05.862Z,22.52
2018-12-11T02:17:34.594Z,26.33
2018-12-11T02:20:03.689Z,33.25
2018-12-11T02:22:32.443Z,27.50
2018-12-11T02:25:01.182Z,22.27
2018-12-11T02:27:30.964Z,28.80
2018-12-11T02:29:59.767Z,27.90
2018-12-11T02:32:28.531Z,30.50
2018-12-11T02:34:57.203Z,26.10
2018-12-11T02:37:25.914Z,28.05
2018-12-11T02:39:54.639Z,22.48
2018-12-11T02:42:23.341Z,21.62
2018-12-11T02:44:52.049Z,31.27
2018-12-11T02:47:20.777Z,29.65
2018-12-11T02:49:49.488Z,29.37
2018-12-11T02:52:18.218Z,26.65
2018-12-11T02:54:46.966Z,24.20
2018-12-11T02:57:15.752Z,29.82
2018-12-11T02:59:44.497Z,29.50
2018-12-11T03:02:13.264Z,28.30
2018-12-11T03:04:41.999Z,26.40
2018-12-11T03:07:10.711Z,22.52
2018-12-11T03:09:39.428Z,26.10
2018-12-11T03:12:08.280Z,29.85
2018-12-11T03:14:37.008Z,20.65
2018-12-11T03:17:05.726Z,25.00
2018-12-11T03:19:34.415Z,24.05
2018-12-11T03:22:03.195Z,29.27
2018-12-11T03:24:31.874Z,24.40
2018-12-11T03:27:00.597Z,34.18
2018-12-11T03:29:29.296Z,25.45
2018-12-11T03:37:51.966Z,33.33
2018-12-11T03:40:20.673Z,21.68
2018-12-11T03:42:49.377Z,29.00
2018-12-11T03:45:18.160Z,22.87
2018-12-11T03:47:46.974Z,24.77
2018-12-11T03:50:15.880Z,25.27
2018-12-11T03:52:44.728Z,28.57
2018-12-11T03:55:13.463Z,18.20
2018-12-11T03:57:42.197Z,29.30
2018-12-11T04:00:11.050Z,33.10
2018-12-11T04:02:39.808Z,29.83
2018-12-11T04:05:08.724Z,28.12
2018-12-11T04:07:37.441Z,28.07
2018-12-11T04:10:07.737Z,24.73
2018-12-11T04:12:36.508Z,27.30
2018-12-11T04:15:05.623Z,24.63
2018-12-11T04:17:34.386Z,24.05
2018-12-11T04:20:03.397Z,25.43
2018-12-11T04:22:32.074Z,22.40
2018-12-11T04:25:00.804Z,24.17
2018-12-11T04:27:29.478Z,23.98
2018-12-11T04:29:58.271Z,23.15
2018-12-11T04:32:26.939Z,18.85
2018-12-11T04:34:55.681Z,28.05
2018-12-11T04:37:24.475Z,29.27
2018-12-11T04:39:53.146Z,24.57
2018-12-11T04:42:21.893Z,22.73
2018-12-11T04:44:50.572Z,19.63
2018-12-11T04:47:19.303Z,22.70
2018-12-11T04:49:48.059Z,24.18
2018-12-11T04:52:16.774Z,16.97
2018-12-11T04:54:45.508Z,22.02
2018-12-11T04:57:14.232Z,16.10
2018-12-11T04:59:42.883Z,16.33
2018-12-11T05:02:11.615Z,22.90
2018-12-11T05:04:40.343Z,26.45
2018-12-11T05:07:09.034Z,19.50
2018-12-11T05:09:37.749Z,25.30
2018-12-11T05:12:06.530Z,23.77
2018-12-11T05:14:35.182Z,16.95
2018-12-11T05:17:04.103Z,23.80
2018-12-11T05:19:32.829Z,18.33
2018-12-11T05:22:01.488Z,25.43
2018-12-11T05:24:30.223Z,21.77
2018-12-11T05:26:58.950Z,20.50
2018-12-11T05:29:27.627Z,20.60
2018-12-11T05:31:56.335Z,22.10
2018-12-11T05:34:25.009Z,18.10
2018-12-11T05:36:53.912Z,20.97
2018-12-11T05:39:22.657Z,22.07
2018-12-11T05:41:51.395Z,20.82
2018-12-11T05:44:20.151Z,28.03
2018-12-11T05:46:49.619Z,23.50
2018-12-11T05:49:18.289Z,21.60
2018-12-11T05:51:47.035Z,23.10
2018-12-11T05:54:15.758Z,19.43
2018-12-11T05:56:45.523Z,18.13
2018-12-11T05:59:14.307Z,21.60
2018-12-11T06:01:43.078Z,32.70
2018-12-11T06:04:11.843Z,18.00
2018-12-11T06:06:40.606Z,29.75
2018-12-11T06:09:09.362Z,23.83
2018-12-11T06:11:38.214Z,24.63
2018-12-11T06:14:06.903Z,27.50
2018-12-11T06:16:35.826Z,24.05
2018-12-11T06:19:04.575Z,20.00
2018-12-11T06:21:33.276Z,23.67
2018-12-11T06:24:01.966Z,23.75
2018-12-11T06:26:30.694Z,24.10
2018-12-11T06:28:59.406Z,21.05
2018-12-11T06:31:28.215Z,18.57
2018-12-11T06:33:56.894Z,26.60
2018-12-11T06:36:25.660Z,15.58
2018-12-11T06:38:54.350Z,22.67
2018-12-11T06:41:23.080Z,21.45
2018-12-11T06:43:51.810Z,22.05
2018-12-11T06:46:20.563Z,19.60
2018-12-11T06:48:49.306Z,16.10
2018-12-11T06:51:18.086Z,12.43
2018-12-11T06:53:47.706Z,14.47
2018-12-11T06:56:16.474Z,19.37
2018-12-11T06:58:45.214Z,20.57
2018-12-11T07:01:14.001Z,17.20
2018-12-11T07:03:42.757Z,17.63
2018-12-11T07:06:11.497Z,18.33
2018-12-11T07:08:40.205Z,25.17
2018-12-11T07:11:08.892Z,24.25
2018-12-11T07:13:37.627Z,15.57
2018-12-11T07:16:07.287Z,18.20
2018-12-11T07:18:35.955Z,23.20
2018-12-11T07:21:04.750Z,19.73
2018-12-11T07:23:33.530Z,20.17
2018-12-11T07:26:02.230Z,21.10
2018-12-11T07:28:31.051Z,19.40
2018-12-11T07:30:59.846Z,24.55
2018-12-11T07:33:28.579Z,17.53
2018-12-11T07:35:57.324Z,27.10
2018-12-11T07:38:26.446Z,17.05
2018-12-11T07:40:55.194Z,20.40
2018-12-11T07:43:23.906Z,23.60
2018-12-11T07:45:52.644Z,15.83
2018-12-11T07:48:21.358Z,12.17
2018-12-11T07:50:50.063Z,19.43
2018-12-11T07:53:18.782Z,21.05
2018-12-11T07:55:47.538Z,15.93
2018-12-11T07:58:16.279Z,14.60
2018-12-11T08:00:45.867Z,20.88
2018-12-11T08:03:14.542Z,15.60
2018-12-11T08:05:43.211Z,18.55
2018-12-11T08:08:16.109Z,22.75
2018-12-11T08:10:44.968Z,26.70
2018-12-11T08:13:13.739Z,16.37
2018-12-11T08:15:42.479Z,23.80
2018-12-11T08:18:11.231Z,15.75
2018-12-11T08:20:39.967Z,18.40
2018-12-11T08:23:08.639Z,19.63
2018-12-11T08:25:37.327Z,31.75
2018-12-11T08:28:06.067Z,17.87
2018-12-11T08:30:34.730Z,21.83
2018-12-11T08:33:03.468Z,18.87
2018-12-11T08:35:32.222Z,18.10
2018-12-11T08:38:00.930Z,18.45
2018-12-11T08:40:29.646Z,23.17
2018-12-11T08:42:58.335Z,16.90
2018-12-11T08:45:27.072Z,18.45
2018-12-11T08:47:56.379Z,20.37
2018-12-11T08:50:25.107Z,15.55
2018-12-11T08:52:53.803Z,18.70
2018-12-11T08:55:22.479Z,27.90
2018-12-11T08:57:51.254Z,23.32
2018-12-11T09:00:19.977Z,30.68
2018-12-11T09:02:48.618Z,22.00
2018-12-11T09:05:17.330Z,27.73
2018-12-11T09:07:46.050Z,36.28
2018-12-11T09:12:57.137Z,19.13
2018-12-11T09:15:25.852Z,23.02
2018-12-11T09:17:54.511Z,20.02
2018-12-11T09:20:23.242Z,22.53
2018-12-11T09:22:51.951Z,17.90
2018-12-11T09:25:20.671Z,18.23
2018-12-11T09:27:49.414Z,21.87
2018-12-11T09:30:18.192Z,26.77
2018-12-11T09:32:46.887Z,23.17
2018-12-11T09:35:16.590Z,21.10
2018-12-11T09:37:45.242Z,20.12
2018-12-11T09:40:14.009Z,30.63
2018-12-11T09:42:44.095Z,23.07
2018-12-11T09:45:12.868Z,27.70
2018-12-11T09:47:41.604Z,26.50
2018-12-11T09:50:10.337Z,26.80
2018-12-11T09:52:39.153Z,35.57
2018-12-11T09:55:07.999Z,27.27
2018-12-11T09:57:36.675Z,67.37
2018-12-11T10:00:07.195Z,25.97
2018-12-11T10:02:36.011Z,21.62
2018-12-11T10:05:05.098Z,27.47
2018-12-11T10:07:33.851Z,15.18
2018-12-11T10:10:02.591Z,25.17
2018-12-11T10:12:31.296Z,24.07
2018-12-11T10:14:59.979Z,31.77
2018-12-11T10:17:28.710Z,32.50
2018-12-11T10:19:57.570Z,22.15
2018-12-11T10:22:26.407Z,22.37
2018-12-11T10:24:55.186Z,24.77
2018-12-11T10:27:23.969Z,20.10
2018-12-11T10:29:52.719Z,23.93
2018-12-11T10:32:21.514Z,20.13
2018-12-11T10:34:50.200Z,26.33
2018-12-11T10:37:18.993Z,23.03
2018-12-11T10:39:47.758Z,25.83
2018-12-11T10:42:16.511Z,23.83
2018-12-11T10:44:45.291Z,21.02
2018-12-11T10:47:14.048Z,26.60
2018-12-11T10:49:42.799Z,18.57
2018-12-11T10:52:11.543Z,22.95
2018-12-11T10:54:40.321Z,26.15
2018-12-11T10:57:09.034Z,26.87
2018-12-11T10:59:37.739Z,21.40
2018-12-11T11:02:11.911Z,29.00
2018-12-11T11:04:40.642Z,23.00
2018-12-11T11:07:09.387Z,23.20
2018-12-11T11:09:38.125Z,28.73
2018-12-11T11:12:06.923Z,22.77
2018-12-11T11:14:35.800Z,21.50
2018-12-11T11:17:04.668Z,29.72
2018-12-11T11:19:33.411Z,25.83
2018-12-11T11:22:02.174Z,22.32
2018-12-11T11:24:30.896Z,34.13
2018-12-11T11:26:59.567Z,37.38
2018-12-11T11:29:28.305Z,26.07
2018-12-11T11:31:57.050Z,31.03
2018-12-11T11:34:25.825Z,25.92
2018-12-11T11:36:54.871Z,27.30
2018-12-11T11:39:23.543Z,24.98
2018-12-11T11:41:52.295Z,24.57
2018-12-11T11:44:20.999Z,26.03
2018-12-11T11:46:49.743Z,29.63
2018-12-11T11:49:19.567Z,30.23
2018-12-11T11:51:48.379Z,32.63
2018-12-11T11:54:17.059Z,16.00
2018-12-11T11:56:45.734Z,26.50
2018-12-11T11:59:14.415Z,25.67
2018-12-11T12:01:43.178Z,28.32
2018-12-11T12:04:11.903Z,23.47
2018-12-11T12:06:40.670Z,27.60
2018-12-11T12:09:09.446Z,29.60
2018-12-11T12:11:39.270Z,22.82
2018-12-11T12:14:08.070Z,24.95
2018-12-11T12:16:36.801Z,32.00
2018-12-11T12:19:05.531Z,24.15
2018-12-11T12:21:34.204Z,28.12
2018-12-11T12:24:02.972Z,25.00
2018-12-11T12:26:31.715Z,28.10
2018-12-11T12:29:00.396Z,22.13
2018-12-11T12:31:29.395Z,29.72
2018-12-11T12:33:58.116Z,25.60
2018-12-11T12:36:26.839Z,23.20
2018-12-11T12:38:55.597Z,32.73
2018-12-11T12:41:24.355Z,26.03
2018-12-11T12:43:54.076Z,27.93
2018-12-11T12:46:23.713Z,31.17
2018-12-11T12:48:53.390Z,20.30
2018-12-11T12:51:23.646Z,32.20
2018-12-11T12:53:53.341Z,38.10
2018-12-11T12:56:23.005Z,26.27
2018-12-11T12:58:52.701Z,31.10
2018-12-11T13:01:22.173Z,25.80
2018-12-11T13:03:52.501Z,23.40
2018-12-11T13:06:22.304Z,21.70
2018-12-11T13:08:56.438Z,19.30
2018-12-11T13:11:26.579Z,18.70
2018-12-11T13:13:56.253Z,19.10
2018-12-11T13:16:26.161Z,21.15
2018-12-11T13:18:55.902Z,19.90
2018-12-11T13:21:26.304Z,18.10
2018-12-11T13:23:55.946Z,30.12
2018-12-11T13:26:25.485Z,31.42
2018-12-11T13:28:55.155Z,18.87
2018-12-11T13:31:25.279Z,28.92
2018-12-11T13:33:55.422Z,28.30
2018-12-11T13:36:31.871Z,27.48
2018-12-11T13:38:57.189Z,26.57
2018-12-11T13:41:26.741Z,29.40
2018-12-11T13:43:56.893Z,23.45
2018-12-11T13:46:26.300Z,25.03
2018-12-11T13:48:55.895Z,24.52
2018-12-11T13:51:25.995Z,26.30
2018-12-11T13:53:55.564Z,29.77
2018-12-11T13:56:25.495Z,27.20
2018-12-11T13:58:54.897Z,23.20
2018-12-11T14:01:24.519Z,28.57
2018-12-11T14:03:54.596Z,26.60
2018-12-11T14:06:24.174Z,27.83
2018-12-11T14:08:53.583Z,29.80
2018-12-11T14:11:23.308Z,26.45
2018-12-11T14:13:52.975Z,29.30
2018-12-11T14:16:22.676Z,24.47
2018-12-11T14:18:52.225Z,38.83
2018-12-11T14:21:21.875Z,26.52
2018-12-11T14:23:51.411Z,30.80
2018-12-11T14:26:21.005Z,23.43
2018-12-11T14:28:50.574Z,27.50
2018-12-11T14:31:20.340Z,30.80
2018-12-11T14:33:50.309Z,28.40
2018-12-11T14:36:19.870Z,26.73
2018-12-11T14:38:51.441Z,27.67
2018-12-11T14:41:21.108Z,29.23
2018-12-11T14:43:50.607Z,27.73
2018-12-11T14:46:21.133Z,32.45
2018-12-11T14:48:50.666Z,30.50
2018-12-11T14:51:20.396Z,46.60
2018-12-11T14:53:49.915Z,37.70
2018-12-11T14:56:19.640Z,28.98
2018-12-11T14:58:49.214Z,25.60
2018-12-11T15:01:18.911Z,34.57
2018-12-11T15:03:49.094Z,32.60
2018-12-11T15:06:18.340Z,29.00
2018-12-11T15:08:47.855Z,33.48
2018-12-11T15:11:17.346Z,29.45
2018-12-11T15:13:46.962Z,34.65
2018-12-11T15:16:15.675Z,29.77
2018-12-11T15:18:44.345Z,31.68
2018-12-11T15:21:13.180Z,24.63
2018-12-11T15:23:42.107Z,25.10
2018-12-11T15:26:10.772Z,30.53
2018-12-11T15:28:39.539Z,26.67
2018-12-11T15:31:10.406Z,27.60
2018-12-11T15:33:39.110Z,25.03
2018-12-11T15:36:07.847Z,26.03
2018-12-11T15:38:36.637Z,30.87
2018-12-11T15:41:05.362Z,25.43
2018-12-11T15:43:34.025Z,30.12
2018-12-11T15:46:02.743Z,21.50
2018-12-11T15:48:31.506Z,25.90
2018-12-11T15:51:00.219Z,25.63
2018-12-11T15:53:28.981Z,28.12
2018-12-11T15:55:57.691Z,23.75
2018-12-11T15:58:26.404Z,27.07
2018-12-11T16:00:55.145Z,28.20
2018-12-11T16:03:23.811Z,28.10
2018-12-11T16:05:52.523Z,25.62
2018-12-11T16:08:21.202Z,17.10
2018-12-11T16:10:49.930Z,16.53
2018-12-11T16:13:18.611Z,20.20
2018-12-11T16:15:48.202Z,18.30
2018-12-11T16:18:16.934Z,17.73
2018-12-11T16:20:45.678Z,16.37
2018-12-11T16:23:14.422Z,16.50
2018-12-11T16:25:43.171Z,12.97
2018-12-11T16:28:11.918Z,13.32
2018-12-11T16:30:40.699Z,13.00
2018-12-11T16:33:09.455Z,10.30
2018-12-11T16:35:38.152Z,9.63
2018-12-11T16:38:06.947Z,12.50
2018-12-11T16:40:35.771Z,12.07
2018-12-11T16:43:04.547Z,10.20
2018-12-11T16:45:33.279Z,8.98
2018-12-11T16:48:02.031Z,11.15
2018-12-11T16:50:30.762Z,7.05
2018-12-11T16:52:59.708Z,11.50
2018-12-11T16:55:28.502Z,44.50
2018-12-11T16:57:57.307Z,14.67
2018-12-11T17:00:26.030Z,19.60
2018-12-11T17:02:54.785Z,15.90
2018-12-11T17:05:23.552Z,21.07
2018-12-11T17:07:52.328Z,23.27
2018-12-11T17:10:21.034Z,16.43
2018-12-11T17:12:49.817Z,15.13
2018-12-11T17:15:23.859Z,16.73
2018-12-11T17:17:52.625Z,28.05
2018-12-11T17:20:21.395Z,14.57
2018-12-11T17:22:50.099Z,14.58
2018-12-11T17:25:18.826Z,17.25
2018-12-11T17:27:47.619Z,20.92
2018-12-11T17:30:16.279Z,19.57
2018-12-11T17:32:44.975Z,17.67
2018-12-11T17:35:13.755Z,18.27
2018-12-11T17:37:42.478Z,15.43
2018-12-11T17:40:11.266Z,11.77
2018-12-11T17:42:39.974Z,14.25
2018-12-11T17:45:08.698Z,11.77
2018-12-11T17:47:37.422Z,9.67
2018-12-11T17:50:07.585Z,10.00
2018-12-11T17:52:36.299Z,15.68
2018-12-11T17:55:05.314Z,11.20
2018-12-11T17:57:34.057Z,7.58
2018-12-11T18:00:04.041Z,6.87
2018-12-11T18:02:36.555Z,7.87
2018-12-11T18:05:06.287Z,7.43
2018-12-11T18:07:34.967Z,8.40
2018-12-11T18:10:05.030Z,10.37
2018-12-11T18:12:33.775Z,7.07
2018-12-11T18:15:02.578Z,12.80
2018-12-11T18:17:31.299Z,8.13
2018-12-11T18:20:00.047Z,13.00
2018-12-11T18:22:28.767Z,6.20
2018-12-11T18:24:57.492Z,8.40
2018-12-11T18:27:26.253Z,9.46
2018-12-11T18:29:55.095Z,10.58
2018-12-11T18:32:25.188Z,9.28
2018-12-11T18:34:54.405Z,16.70
2018-12-11T18:37:23.391Z,9.63
2018-12-11T18:39:52.201Z,6.92
2018-12-11T18:42:20.996Z,9.38
2018-12-11T18:44:49.745Z,7.17
2018-12-11T18:47:18.484Z,7.13
2018-12-11T18:49:47.258Z,11.60
2018-12-11T18:52:15.981Z,10.40
2018-12-11T18:54:45.598Z,11.22
2018-12-11T18:57:14.270Z,7.30
2018-12-11T18:59:43.015Z,8.53
2018-12-11T19:02:11.739Z,13.00
2018-12-11T19:04:40.518Z,13.22
2018-12-11T19:07:09.259Z,13.68
2018-12-11T19:09:39.895Z,7.47
2018-12-11T19:12:08.690Z,9.23
2018-12-11T19:14:37.407Z,10.82
2018-12-11T19:17:08.072Z,10.08
2018-12-11T19:19:37.583Z,9.90
2018-12-11T19:22:06.244Z,7.97
2018-12-11T19:24:45.767Z,9.88
2018-12-11T19:27:14.488Z,14.53
2018-12-11T19:29:43.168Z,11.08
2018-12-11T19:32:13.920Z,7.50
2018-12-11T19:34:42.699Z,11.47
2018-12-11T19:37:11.423Z,12.57
2018-12-11T19:39:40.186Z,11.70
2018-12-11T19:42:09.210Z,8.80
2018-12-11T19:44:38.022Z,14.00
2018-12-11T19:47:06.787Z,4.63
2018-12-11T19:49:36.603Z,10.55
2018-12-11T19:52:05.672Z,10.18
2018-12-11T19:54:34.343Z,7.87
2018-12-11T19:57:03.167Z,11.47
2018-12-11T19:59:33.078Z,6.83
2018-12-11T20:02:01.861Z,7.90
2018-12-11T20:04:30.522Z,11.33
2018-12-11T20:06:59.226Z,10.07
2018-12-11T20:09:28.019Z,11.13
2018-12-11T20:11:56.711Z,10.17
2018-12-11T20:14:25.406Z,5.65
2018-12-11T20:16:54.303Z,9.23
2018-12-11T20:19:23.098Z,9.90
2018-12-11T20:21:51.861Z,8.25
2018-12-11T20:24:20.691Z,14.23
2018-12-11T20:26:49.447Z,6.92
2018-12-11T20:29:18.154Z,8.68
2018-12-11T20:31:46.839Z,9.67
2018-12-11T20:34:15.619Z,5.50
2018-12-11T20:36:44.699Z,9.55
2018-12-11T20:39:13.379Z,8.93
2018-12-11T20:41:42.099Z,7.43
2018-12-11T20:44:10.852Z,11.60
2018-12-11T20:46:39.563Z,10.30
2018-12-11T20:49:08.315Z,10.33
2018-12-11T20:51:37.015Z,11.12
2018-12-11T20:54:05.727Z,8.85
2018-12-11T20:56:34.473Z,9.13
2018-12-11T20:59:03.908Z,13.28
2018-12-11T21:01:32.579Z,9.37
2018-12-11T21:04:01.274Z,4.87
2018-12-11T21:06:29.970Z,9.00
2018-12-11T21:08:58.772Z,13.33
2018-12-11T21:11:27.556Z,8.40
2018-12-11T21:13:56.248Z,11.10
2018-12-11T21:16:25.106Z,9.65
2018-12-11T21:18:53.971Z,16.87
2018-12-11T21:21:23.240Z,12.25
2018-12-11T21:23:51.955Z,12.30
2018-12-11T21:26:20.674Z,12.33
2018-12-11T21:28:49.394Z,14.23
2018-12-11T21:31:18.139Z,14.40
2018-12-11T21:33:46.871Z,12.37
2018-12-11T21:36:15.610Z,12.27
2018-12-11T21:38:44.378Z,11.23
2018-12-11T21:41:13.078Z,16.02
2018-12-11T21:43:42.786Z,13.30
2018-12-11T21:46:11.505Z,15.27
2018-12-11T21:48:40.202Z,13.00
2018-12-11T21:51:08.912Z,12.57
2018-12-11T21:53:37.610Z,11.15
2018-12-11T21:56:06.371Z,14.80
2018-12-11T21:58:35.090Z,16.23
2018-12-11T22:01:05.092Z,17.43
2018-12-11T22:03:33.834Z,10.78
2018-12-11T22:06:02.943Z,9.17
2018-12-11T22:08:31.659Z,10.13
2018-12-11T22:11:00.379Z,18.07
2018-12-11T22:13:29.143Z,10.58
2018-12-11T22:15:57.866Z,11.63
2018-12-11T22:18:26.583Z,10.48
2018-12-11T22:20:55.343Z,14.45
2018-12-11T22:23:24.086Z,14.15
2018-12-11T22:25:52.787Z,11.90
2018-12-11T22:28:21.518Z,11.95
2018-12-11T22:30:50.225Z,11.45
2018-12-11T22:33:18.949Z,10.48
2018-12-11T22:35:47.691Z,12.03
2018-12-11T22:38:16.403Z,11.73
2018-12-11T22:40:45.109Z,15.98
2018-12-11T22:43:13.811Z,11.05
2018-12-11T22:45:42.528Z,13.45
2018-12-11T22:48:11.228Z,12.13
2018-12-11T22:50:39.987Z,15.83
2018-12-11T22:53:08.700Z,13.60
2018-12-11T22:55:37.487Z,10.38
2018-12-11T22:58:06.134Z,13.83
2018-12-11T23:00:34.876Z,13.50
2018-12-11T23:03:05.574Z,13.65
2018-12-11T23:05:34.291Z,12.88
2018-12-11T23:08:02.954Z,17.02
2018-12-11T23:10:31.639Z,11.90
2018-12-11T23:13:00.323Z,12.25
2018-12-11T23:15:29.014Z,12.78
2018-12-11T23:17:57.774Z,11.48
2018-12-11T23:20:26.517Z,15.00
2018-12-11T23:22:55.242Z,14.40
2018-12-11T23:25:23.937Z,12.43
2018-12-11T23:27:52.611Z,11.68
2018-12-11T23:30:21.339Z,10.50
2018-12-11T23:32:49.991Z,9.30
2018-12-11T23:35:18.690Z,15.00
2018-12-11T23:37:47.391Z,13.18
2018-12-11T23:40:16.041Z,11.05
2018-12-11T23:42:44.695Z,16.37
2018-12-11T23:45:13.418Z,16.80
2018-12-11T23:47:42.111Z,12.87
2018-12-11T23:50:10.819Z,14.15
2018-12-11T23:52:39.518Z,15.03
2018-12-11T23:55:08.281Z,16.95
2018-12-11T23:57:36.979Z,16.73
